Terminal Aerodrome Forecast
Issued by NWS

Home | Current Version | Previous Version | Graphics & Text | Print | Product List | Glossary On
Versions: 1 2 3 4 5 6 7 8 9 10 11 12 13 14 15 16 17
000
FTUS41 KCLE 141700
TAFFDY
TAF
KFDY 141739Z 1418/1518 25015G30KT P6SM VCSH SCT025 OVC035
      TEMPO 1418/1422 3SM -SHRA BR SCT015 OVC025
     FM142200 30015G25KT P6SM SCT015 OVC025
     FM150300 35015G25KT 4SM -SHRA BR SCT006 OVC015
     FM150700 33015G25KT 2SM -SN OVC006
     FM151300 33015G25KT P6SM SCT008 OVC015=

USA.gov is the U.S. government's official web portal to all federal, state and local government web resources and services.